Challenge Hesbignon

Le Jogging Des 3 Villages - Buvingen (11.20 km)

samedi 31 juillet 2021

Le classement original se trouve sur : http://www.challengehesbignon.be/
CHALLENGE HESBIGNON
LE JOGGING DES 3 VILLAGES - BUVINGEN
DISTANCE 11.20 km
samedi 31 juillet 2021
 
Place dos Nom Cat. Pl/Cat. temps temps/km Vitesse
1 533 RADELET STEPHEN SH 1 00:39:57 03:34 16.82
2 360 CROQUET JONATHAN V1 1 00:40:38 03:38 16.54
3 2539 RÉGIS RAMELOT R V1 2 00:40:38 03:38 16.54
4 2536 PASCAL VAN MARCKE P V2 1 00:40:59 03:40 16.40
5 2521 JO VRANCKEN J V1 3 00:41:06 03:40 16.35
6 2506 CHRIS WOUTERS C V2 2 00:41:14 03:41 16.30
7 2547 TERMEER ROBBIE SH 2 00:42:32 03:48 15.80
8 2555 XXX SH 3 00:42:32 03:48 15.80
9 337 VANHEES JEAN SH 4 00:43:37 03:54 15.41
10 2509 DIMITRI DROUMPOURAS D V1 4 00:43:47 03:55 15.35
11 2548 DEHIN REGINALD SH 5 00:43:53 03:55 15.31
12 2549 MOUKRIME TARIK SH 6 00:43:53 03:55 15.31
13 2515 FRÉDÉRIC GOCHEL F SH 7 00:44:51 04:00 14.98
14 2554 MELOTTE JORIS SH 8 00:44:55 04:01 14.96
15 422 VAN DER MEERSCH MICHEL V2 3 00:45:03 04:01 14.92
16 424 SCALAIS JEAN PHILIPPE V1 5 00:45:23 04:03 14.81
17 2550 DIELS MARC V2 4 00:45:31 04:04 14.76
18 2527 LEENTJE HELLEMANS L SD 1 00:45:45 04:05 14.69
19 371 FOLDESI DAVID V1 6 00:46:06 04:07 14.58
20 2510 DIRK WILLEM D V2 5 00:46:20 04:08 14.50
21 319 PASQUASY ERIC V1 7 00:47:39 04:15 14.10
22 2538 VAES PETER V2 6 00:47:56 04:17 14.02
23 2552 SCHRIJVERS KRISTOF SH 9 00:48:01 04:17 14.00
24 2517 JAMES MOTTEN J SH 10 00:48:09 04:18 13.96
25 352 HANSEN PASCAL V2 7 00:48:19 04:19 13.91
26 2542 ROMAIN GUILLIAMS R SH 11 00:49:11 04:23 13.66
27 420 DIRICKX NICO SH 12 00:49:20 04:24 13.62
28 2530 MARC HIEMELEERS M V3 1 00:49:30 04:25 13.58
29 2541 ROBIN DENEYE R SH 13 00:49:40 04:26 13.53
30 534 MOTTET PIERRE SH 14 00:49:49 04:27 13.49
31 2519 JEROEN HENDRICX J SH 15 00:49:58 04:28 13.45
32 442 ETIENNE PHILIPPE SH 16 00:50:04 04:28 13.42
33 320 WERCKX LUDO V3 2 00:50:18 04:29 13.36
34 536 LALMAND MARTIN SH 17 00:50:23 04:30 13.34
35 540 THOMAS LOIC SH 18 00:50:23 04:30 13.34
36 2558 JORIS STIJN SH 19 00:50:38 04:31 13.27
37 541 DENEUMOSTIER JEREMIE V1 8 00:50:48 04:32 13.23
38 454 DOLHEN PIERRE V1 9 00:50:52 04:32 13.21
39 365 THONET PHILIPPE V2 8 00:51:33 04:36 13.04
40 364 BALON SANDRINE A2 1 00:51:37 04:37 13.02
41 553 SCHUTZ RENAUD V1 10 00:52:00 04:39 12.92
42 423 DEMARET RAYMOND V3 3 00:53:01 04:44 12.68
43 426 RIHON PAUL V3 4 00:53:06 04:44 12.66
44 2535 ONCKELINX KRISTOF O V1 11 00:53:13 04:45 12.63
45 535 BONTINCK KOEN V2 9 00:53:27 04:46 12.57
46 546 HUYBRECHTS STEFAAN V2 10 00:53:41 04:48 12.52
47 2520 JEROEN TACK J SH 20 00:53:44 04:48 12.51
48 524 HOUART PATRICK V2 11 00:54:14 04:51 12.39
49 2501 BENOIT BAWIN B V2 12 00:54:56 04:54 12.23
50 2526 KRIS VANDEWEYER K V1 12 00:55:32 04:58 12.10
51 542 HUMBLET AURELIEN SH 21 00:55:42 04:58 12.06
52 361 ZWAENEPOEL MICHEL V3 5 00:56:24 05:02 11.91
53 2532 MARCEL HOMBROUX M V3 6 00:56:39 05:03 11.86
54 538 DE BATSELIER DIRK V2 13 00:56:46 05:04 11.84
55 549 GOVAERTS KRIS V3 7 00:57:46 05:09 11.63
56 539 GOFFIN ALEXANDRE V1 13 00:58:04 05:11 11.57
57 2551 DIELS GEERT V1 14 00:58:30 05:13 11.49
58 545 SALMON PETER V2 14 00:58:33 05:14 11.48
59 2545 XXX SH 22 00:59:00 05:16 11.39
60 552 VANWELKENHUYZEN JORIS V2 15 00:59:18 05:18 11.33
61 2507 CHRISTOPHE SBILLE C V1 15 00:59:24 05:18 11.31
62 401 VANSWEEVELT LUC V1 16 00:59:53 05:21 11.22
63 505 SPRIMONT ARNAUD SH 23 01:00:44 05:25 11.06
64 2557 XXX SH 24 01:00:50 05:26 11.05
65 2508 DANNY ZWERTS D V3 8 01:01:01 05:27 11.01
66 394 PIRSOUL AURELIE SD 2 01:01:42 05:31 10.89
67 392 KEVITCH DJO V1 17 01:01:42 05:31 10.89
68 550 VAN ZAND MAJA A3 1 01:02:20 05:34 10.78
69 554 AIDANS LAURENT V1 18 01:02:27 05:35 10.76
70 2544 SHARON HIEMELEERS S SD 3 01:02:30 05:35 10.75
71 386 CHRISTIAENS CHRISTOPHE V2 16 01:03:10 05:38 10.64
72 2513 FABIEN BALDO F V2 17 01:03:18 05:39 10.62
73 2534 NICOLAS KORSAK N V2 18 01:04:10 05:44 10.47
74 489 MOES ISABELLE A2 2 01:05:24 05:50 10.28
75 499 DUCHENE YVES V1 19 01:05:52 05:53 10.20
76 2524 JOS POLDERS J V3 9 01:06:06 05:54 10.17
77 2500 BÉNÉDICTE MONFORT B SD 4 01:06:14 05:55 10.15
78 525 MEEKERS STEFAN V2 19 01:07:00 05:59 10.03
79 317 LEONARD PHILIPPE V2 20 01:07:34 06:02 9.95
80 2553 BYA CHARLES V2 21 01:07:46 06:03 9.92
81 2525 JOSÉ ISTAZI J V3 10 01:07:50 06:03 9.91
82 2556 DIELS WARRE EG 1 01:08:00 06:04 9.88
83 2522 JOHAN DIELS J V1 20 01:08:25 06:07 9.82
84 2546 SWENNEN GILBERT V4 1 01:09:00 06:10 9.74
85 353 LENAERTS RAYMOND V3 11 01:09:48 06:14 9.63
86 421 HEINE VERONIQUE A1 1 01:10:06 06:16 9.59
87 2543 RUDY VEREECKEN R V3 12 01:10:20 06:17 9.55
88 349 BRANTS FRANCIS V4 2 01:10:23 06:17 9.55
89 2503 BENOÎT WATTIEZ B SH 25 01:11:39 06:24 9.38
90 2512 ERIC WILLIAUME E V1 21 01:12:39 06:29 9.25
91 2531 MARC TJWA M V1 22 01:14:14 06:38 9.05
92 368 CRANINX PATRICK V2 22 01:15:01 06:42 8.96
93 345 PIRARD THIERRY V2 23 01:20:27 07:11 8.35
94 548 PETITJEAN BEATRICE A3 2 01:20:38 07:12 8.33
95 547 PIETEUR FABIENNE A2 3 01:20:43 07:12 8.33
96 385 JOIRIS JEANNINE A1 2 01:23:51 07:29 8.01
               
Nos dernières videos